createdAt,value
2019-05-18T00:00:59.349Z,13.30
2019-05-18T00:03:28.696Z,13.30
2019-05-18T00:05:58.051Z,13.20
2019-05-18T00:08:27.387Z,13.10
2019-05-18T00:10:56.755Z,13.10
2019-05-18T00:13:26.186Z,13.00
2019-05-18T00:15:55.583Z,13.00
2019-05-18T00:18:25.074Z,12.90
2019-05-18T00:20:54.449Z,12.80
2019-05-18T00:23:23.774Z,12.80
2019-05-18T00:25:53.085Z,12.70
2019-05-18T00:28:22.492Z,12.60
2019-05-18T00:30:51.820Z,12.60
2019-05-18T00:33:21.157Z,12.50
2019-05-18T00:35:51.621Z,12.50
2019-05-18T00:38:20.947Z,12.50
2019-05-18T00:40:50.288Z,12.50
2019-05-18T00:43:19.639Z,12.50
2019-05-18T00:45:49.062Z,12.50
2019-05-18T00:48:18.384Z,12.40
2019-05-18T00:50:47.737Z,12.40
2019-05-18T00:53:17.135Z,12.30
2019-05-18T00:55:46.541Z,12.30
2019-05-18T00:58:15.904Z,12.20
2019-05-18T01:00:45.587Z,12.20
2019-05-18T01:03:14.944Z,12.20
2019-05-18T01:05:44.235Z,12.20
2019-05-18T01:08:13.648Z,12.10
2019-05-18T01:10:44.021Z,12.10
2019-05-18T01:13:13.350Z,12.00
2019-05-18T01:15:42.653Z,12.00
2019-05-18T01:18:12.086Z,12.00
2019-05-18T01:20:41.625Z,12.00
2019-05-18T01:23:11.074Z,11.90
2019-05-18T01:25:40.412Z,11.90
2019-05-18T01:28:09.855Z,11.80
2019-05-18T01:30:39.238Z,11.80
2019-05-18T01:33:08.545Z,11.80
2019-05-18T01:35:37.876Z,11.80
2019-05-18T01:38:07.243Z,11.70
2019-05-18T01:40:36.570Z,11.70
2019-05-18T01:43:05.952Z,11.60
2019-05-18T01:45:35.308Z,11.60
2019-05-18T01:48:13.205Z,11.60
2019-05-18T01:50:54.671Z,11.60
2019-05-18T01:53:24.007Z,11.50
2019-05-18T01:55:53.345Z,11.50
2019-05-18T01:58:22.642Z,11.50
2019-05-18T02:00:51.973Z,11.50
2019-05-18T02:03:21.354Z,11.50
2019-05-18T02:05:50.783Z,11.50
2019-05-18T02:08:20.087Z,11.50
2019-05-18T02:10:49.428Z,11.40
2019-05-18T02:13:18.799Z,11.40
2019-05-18T02:15:48.175Z,11.40
2019-05-18T02:18:28.832Z,11.40
2019-05-18T02:20:48.595Z,11.40
2019-05-18T02:23:18.008Z,11.40
2019-05-18T02:25:47.347Z,11.40
2019-05-18T02:28:16.659Z,11.30
2019-05-18T02:30:46.103Z,11.30
2019-05-18T02:33:15.403Z,11.30
2019-05-18T02:35:44.691Z,11.30
2019-05-18T02:38:17.181Z,11.30
2019-05-18T02:40:48.093Z,11.20
2019-05-18T02:43:17.771Z,11.20
2019-05-18T02:45:47.044Z,11.20
2019-05-18T02:48:16.466Z,11.20
2019-05-18T02:50:45.794Z,11.10
2019-05-18T02:53:16.949Z,11.10
2019-05-18T02:55:46.362Z,11.10
2019-05-18T02:58:15.813Z,11.10
2019-05-18T03:00:45.245Z,11.00
2019-05-18T03:03:14.579Z,11.00
2019-05-18T03:05:44.830Z,11.00
2019-05-18T03:08:14.230Z,11.00
2019-05-18T03:10:43.633Z,11.00
2019-05-18T03:13:13.202Z,10.90
2019-05-18T03:15:42.522Z,10.90
2019-05-18T03:18:11.914Z,10.90
2019-05-18T03:20:41.342Z,10.80
2019-05-18T03:23:10.735Z,10.80
2019-05-18T03:25:40.138Z,10.80
2019-05-18T03:28:09.478Z,10.80
2019-05-18T03:30:38.860Z,10.80
2019-05-18T03:33:08.184Z,10.80
2019-05-18T03:35:37.521Z,10.80
2019-05-18T03:38:06.878Z,10.80
2019-05-18T03:40:36.237Z,10.80
2019-05-18T03:43:05.961Z,10.80
2019-05-18T03:45:35.361Z,10.80
2019-05-18T03:48:04.848Z,10.80
2019-05-18T03:50:34.180Z,10.80
2019-05-18T03:53:03.495Z,10.80
2019-05-18T03:55:33.298Z,10.90
2019-05-18T03:58:02.679Z,10.90
2019-05-18T04:00:31.983Z,10.90
2019-05-18T04:03:01.354Z,10.90
2019-05-18T04:05:30.912Z,11.00
2019-05-18T04:08:00.207Z,11.00
2019-05-18T04:10:29.563Z,11.00
2019-05-18T04:12:58.878Z,11.10
2019-05-18T04:15:28.204Z,11.10
2019-05-18T04:17:57.492Z,11.20
2019-05-18T04:20:26.998Z,11.20
2019-05-18T04:22:56.927Z,11.30
2019-05-18T04:25:26.217Z,11.30
2019-05-18T04:27:55.650Z,11.40
2019-05-18T04:30:25.111Z,11.40
2019-05-18T04:32:54.664Z,11.50
2019-05-18T04:35:23.965Z,11.60
2019-05-18T04:37:53.352Z,11.70
2019-05-18T04:40:22.789Z,11.70
2019-05-18T04:42:52.130Z,11.80
2019-05-18T04:45:23.484Z,11.90
2019-05-18T04:47:54.417Z,12.10
2019-05-18T04:50:23.822Z,12.20
2019-05-18T04:52:53.184Z,12.30
2019-05-18T04:55:22.642Z,12.40
2019-05-18T04:57:52.058Z,12.50
2019-05-18T05:00:21.362Z,12.70
2019-05-18T05:02:50.768Z,12.80
2019-05-18T05:05:20.116Z,13.00
2019-05-18T05:07:49.577Z,13.30
2019-05-18T05:10:19.028Z,13.70
2019-05-18T05:12:48.335Z,14.00
2019-05-18T05:15:17.765Z,14.50
2019-05-18T05:17:47.147Z,14.80
2019-05-18T05:20:19.828Z,15.10
2019-05-18T05:22:47.599Z,15.40
2019-05-18T05:25:16.957Z,15.70
2019-05-18T05:27:46.269Z,15.90
2019-05-18T05:30:15.940Z,16.20
2019-05-18T05:32:45.239Z,16.30
2019-05-18T05:35:14.679Z,16.50
2019-05-18T05:37:44.044Z,16.80
2019-05-18T05:40:13.416Z,17.10
2019-05-18T05:42:42.858Z,17.40
2019-05-18T05:45:12.416Z,17.20
2019-05-18T05:47:41.811Z,17.40
2019-05-18T05:50:11.877Z,17.70
2019-05-18T05:52:41.418Z,17.90
2019-05-18T05:55:11.287Z,18.30
2019-05-18T05:57:40.675Z,18.70
2019-05-18T06:00:11.011Z,18.90
2019-05-18T06:02:59.493Z,19.20
2019-05-18T06:05:28.942Z,19.30
2019-05-18T06:07:58.363Z,19.50
2019-05-18T06:10:27.821Z,19.80
2019-05-18T06:12:57.245Z,19.60
2019-05-18T06:15:26.616Z,19.50
2019-05-18T06:17:56.002Z,20.20
2019-05-18T06:20:25.586Z,20.50
2019-05-18T06:22:55.034Z,20.70
2019-05-18T06:25:24.463Z,21.10
2019-05-18T06:27:53.880Z,21.50
2019-05-18T06:30:23.423Z,22.00
2019-05-18T06:32:52.842Z,22.20
2019-05-18T06:35:22.344Z,22.70
2019-05-18T06:37:51.744Z,22.50
2019-05-18T06:40:21.283Z,22.80
2019-05-18T06:42:50.813Z,22.90
2019-05-18T06:45:20.484Z,23.40
2019-05-18T06:47:49.961Z,23.70
2019-05-18T06:50:24.350Z,23.90
2019-05-18T06:52:53.792Z,23.90
2019-05-18T06:55:23.193Z,24.70
2019-05-18T06:57:52.749Z,25.40
2019-05-18T07:00:22.381Z,24.90
2019-05-18T07:02:51.876Z,23.80
2019-05-18T07:05:21.891Z,25.20
2019-05-18T07:07:51.486Z,25.60
2019-05-18T07:10:20.828Z,25.30
2019-05-18T07:12:50.230Z,25.80
2019-05-18T07:15:20.015Z,26.60
2019-05-18T07:17:50.839Z,26.50
2019-05-18T07:20:25.635Z,27.80
2019-05-18T07:22:55.080Z,27.10
2019-05-18T07:25:28.909Z,27.60
2019-05-18T07:27:58.496Z,28.50
2019-05-18T07:30:29.705Z,28.70
2019-05-18T07:32:59.140Z,29.10
2019-05-18T07:35:28.583Z,30.00
2019-05-18T07:37:58.063Z,29.20
2019-05-18T07:40:27.552Z,30.00
2019-05-18T07:42:58.905Z,30.90
2019-05-18T07:45:28.067Z,31.10
2019-05-18T07:47:57.531Z,31.10
2019-05-18T07:50:26.972Z,32.10
2019-05-18T07:52:57.873Z,31.80
2019-05-18T07:55:27.202Z,32.80
2019-05-18T07:57:56.580Z,33.70
2019-05-18T08:00:26.207Z,33.00
2019-05-18T08:02:55.632Z,33.80
2019-05-18T08:05:25.341Z,34.30
2019-05-18T08:07:54.805Z,33.90
2019-05-18T08:10:37.567Z,33.90
2019-05-18T08:13:07.544Z,33.90
2019-05-18T08:15:39.346Z,34.70
2019-05-18T08:18:08.695Z,35.10
2019-05-18T08:20:38.043Z,34.90
2019-05-18T08:23:07.430Z,33.40
2019-05-18T08:25:36.890Z,33.90
2019-05-18T08:28:06.232Z,33.70
2019-05-18T08:30:35.685Z,33.20
2019-05-18T08:33:06.476Z,32.00
2019-05-18T08:35:35.917Z,32.90
2019-05-18T08:38:05.315Z,30.80
2019-05-18T08:40:34.852Z,32.20
2019-05-18T08:43:06.041Z,31.50
2019-05-18T08:45:35.436Z,29.30
2019-05-18T08:48:04.900Z,30.40
2019-05-18T08:50:34.324Z,32.10
2019-05-18T08:53:04.597Z,33.20
2019-05-18T08:55:34.059Z,33.40
2019-05-18T08:58:05.443Z,32.30
2019-05-18T09:00:35.778Z,34.30
2019-05-18T09:03:05.198Z,35.90
2019-05-18T09:05:34.616Z,34.80
2019-05-18T09:08:04.049Z,35.00
2019-05-18T09:10:33.461Z,34.60
2019-05-18T09:13:04.839Z,35.30
2019-05-18T09:15:34.184Z,32.70
2019-05-18T09:18:05.025Z,34.20
2019-05-18T09:20:34.713Z,34.50
2019-05-18T09:23:04.496Z,35.70
2019-05-18T09:25:34.307Z,34.70
2019-05-18T09:28:03.704Z,35.00
2019-05-18T09:30:33.107Z,35.60
2019-05-18T09:33:02.863Z,33.20
2019-05-18T09:35:32.183Z,33.70
2019-05-18T09:38:01.616Z,34.00
2019-05-18T09:40:31.802Z,34.30
2019-05-18T09:43:01.265Z,34.90
2019-05-18T09:45:31.781Z,35.20
2019-05-18T09:48:01.264Z,34.80
2019-05-18T09:50:30.728Z,34.40
2019-05-18T09:53:00.152Z,31.60
2019-05-18T09:55:31.304Z,29.90
2019-05-18T09:58:00.782Z,29.40
2019-05-18T10:00:38.264Z,28.00
2019-05-18T10:03:02.979Z,28.80
2019-05-18T10:05:32.307Z,28.10
2019-05-18T10:08:01.665Z,28.20
2019-05-18T10:10:33.607Z,29.90
2019-05-18T10:13:02.156Z,30.30
2019-05-18T10:15:31.492Z,31.50
2019-05-18T10:18:00.924Z,33.30
2019-05-18T10:20:30.355Z,34.60
2019-05-18T10:23:12.456Z,33.60
2019-05-18T10:25:31.057Z,31.80
2019-05-18T10:28:00.395Z,32.00
2019-05-18T10:30:29.830Z,30.20
2019-05-18T10:32:59.250Z,29.70
2019-05-18T10:35:28.557Z,28.40
2019-05-18T10:37:57.920Z,29.70
2019-05-18T10:40:32.222Z,30.00
2019-05-18T10:43:01.687Z,31.50
2019-05-18T10:45:31.006Z,32.40
2019-05-18T10:48:01.468Z,32.70
2019-05-18T10:50:30.978Z,32.10
2019-05-18T10:53:03.420Z,31.50
2019-05-18T10:55:36.083Z,31.40
2019-05-18T10:58:05.563Z,32.00
2019-05-18T11:00:34.939Z,32.50
2019-05-18T11:03:04.319Z,32.70
2019-05-18T11:05:33.742Z,30.40
2019-05-18T11:08:05.333Z,28.90
2019-05-18T11:10:34.747Z,29.40
2019-05-18T11:13:04.048Z,31.00
2019-05-18T11:15:33.352Z,30.60
2019-05-18T11:18:02.798Z,31.80
2019-05-18T11:20:33.090Z,32.80
2019-05-18T11:23:02.628Z,30.80
2019-05-18T11:25:32.004Z,30.80
2019-05-18T11:28:01.428Z,31.60
2019-05-18T11:30:31.082Z,32.90
2019-05-18T11:33:00.398Z,33.30
2019-05-18T11:35:32.153Z,32.50
2019-05-18T11:38:01.575Z,31.50
2019-05-18T11:40:30.912Z,31.90
2019-05-18T11:43:00.331Z,31.80
2019-05-18T11:45:29.892Z,33.60
2019-05-18T11:47:59.378Z,31.10
2019-05-18T11:50:28.887Z,31.80
2019-05-18T11:52:58.232Z,33.80
2019-05-18T11:55:27.753Z,34.50
2019-05-18T11:57:57.263Z,35.50
2019-05-18T12:00:31.500Z,34.60
2019-05-18T12:03:00.373Z,32.00
2019-05-18T12:05:29.826Z,30.70
2019-05-18T12:07:59.230Z,29.70
2019-05-18T12:10:28.603Z,29.10
2019-05-18T12:12:57.985Z,29.60
2019-05-18T12:15:27.557Z,28.10
2019-05-18T12:17:56.972Z,28.30
2019-05-18T12:20:26.427Z,28.00
2019-05-18T12:22:55.827Z,27.60
2019-05-18T12:25:25.245Z,28.70
2019-05-18T12:27:56.169Z,28.50
2019-05-18T12:30:25.937Z,28.30
2019-05-18T12:32:55.362Z,28.50
2019-05-18T12:35:28.334Z,28.80
2019-05-18T12:37:58.850Z,28.80
2019-05-18T12:40:28.355Z,29.30
2019-05-18T12:42:59.155Z,28.80
2019-05-18T12:45:29.257Z,28.20
2019-05-18T12:47:59.069Z,29.20
2019-05-18T12:50:30.431Z,30.20
2019-05-18T12:53:02.616Z,31.00
2019-05-18T12:55:31.636Z,30.00
2019-05-18T12:58:01.334Z,28.40
2019-05-18T13:00:30.941Z,28.00
2019-05-18T13:03:06.498Z,27.90
2019-05-18T13:05:35.908Z,28.20
2019-05-18T13:08:05.248Z,28.30
2019-05-18T13:10:34.677Z,28.40
2019-05-18T13:13:04.169Z,27.40
2019-05-18T13:15:33.566Z,26.60
2019-05-18T13:18:35.354Z,26.10
2019-05-18T13:21:07.891Z,26.10
2019-05-18T13:23:37.281Z,26.00
2019-05-18T13:26:06.691Z,26.50
2019-05-18T13:28:36.139Z,27.00
2019-05-18T13:31:06.886Z,27.60
2019-05-18T13:33:36.255Z,27.50
2019-05-18T13:36:05.591Z,28.00
2019-05-18T13:38:35.005Z,27.60
2019-05-18T13:41:04.575Z,28.20
2019-05-18T13:43:34.154Z,28.40
2019-05-18T13:46:03.659Z,27.10
2019-05-18T13:48:33.197Z,27.40
2019-05-18T13:51:02.659Z,28.50
2019-05-18T13:53:32.166Z,29.00
2019-05-18T13:56:01.780Z,28.30
2019-05-18T13:58:31.265Z,27.80
2019-05-18T14:01:00.699Z,27.80
2019-05-18T14:03:30.210Z,27.40
2019-05-18T14:06:01.573Z,27.10
2019-05-18T14:08:30.841Z,26.90
2019-05-18T14:11:00.391Z,26.80
2019-05-18T14:13:30.015Z,26.20
2019-05-18T14:15:59.646Z,26.10
2019-05-18T14:18:29.307Z,26.10
2019-05-18T14:21:00.278Z,26.90
2019-05-18T14:23:29.942Z,26.70
2019-05-18T14:25:59.375Z,26.50
2019-05-18T14:28:28.847Z,26.20
2019-05-18T14:30:58.248Z,25.70
2019-05-18T14:33:27.746Z,25.60
2019-05-18T14:35:57.273Z,26.00
2019-05-18T14:38:26.635Z,27.10
2019-05-18T14:40:57.503Z,27.50
2019-05-18T14:43:28.338Z,27.50
2019-05-18T14:45:57.770Z,27.80
2019-05-18T14:48:27.223Z,28.40
2019-05-18T14:50:56.519Z,28.30
2019-05-18T14:53:29.112Z,28.70
2019-05-18T14:55:58.639Z,28.00
2019-05-18T14:58:28.381Z,28.10
2019-05-18T15:00:57.882Z,28.20
2019-05-18T15:03:27.330Z,28.00
2019-05-18T15:05:56.769Z,28.00
2019-05-18T15:08:26.593Z,28.40
2019-05-18T15:10:55.955Z,28.00
2019-05-18T15:13:25.440Z,27.50
2019-05-18T15:15:54.949Z,27.50
2019-05-18T15:18:24.413Z,27.70
2019-05-18T15:20:53.905Z,27.00
2019-05-18T15:23:23.286Z,25.90
2019-05-18T15:25:52.739Z,25.10
2019-05-18T15:28:22.043Z,24.60
2019-05-18T15:30:51.458Z,24.80
2019-05-18T15:33:20.798Z,24.70
2019-05-18T15:35:50.232Z,24.50
2019-05-18T15:38:19.632Z,24.20
2019-05-18T15:40:49.055Z,23.90
2019-05-18T15:43:18.443Z,23.90
2019-05-18T15:45:47.915Z,23.80
2019-05-18T15:48:17.337Z,23.60
2019-05-18T15:50:46.731Z,23.50
2019-05-18T15:53:16.130Z,23.40
2019-05-18T15:55:47.542Z,23.40
2019-05-18T15:58:16.586Z,23.40
2019-05-18T16:00:45.925Z,23.50
2019-05-18T16:03:15.324Z,23.40
2019-05-18T16:05:44.743Z,23.10
2019-05-18T16:08:14.361Z,23.00
2019-05-18T16:10:43.789Z,22.90
2019-05-18T16:13:13.135Z,23.00
2019-05-18T16:15:42.585Z,22.80
2019-05-18T16:18:11.970Z,22.90
2019-05-18T16:20:41.439Z,22.70
2019-05-18T16:23:10.823Z,22.60
2019-05-18T16:25:40.439Z,22.60
2019-05-18T16:28:09.979Z,22.60
2019-05-18T16:30:39.590Z,22.70
2019-05-18T16:33:09.003Z,22.60
2019-05-18T16:35:38.388Z,22.40
2019-05-18T16:38:07.832Z,22.40
2019-05-18T16:40:38.272Z,22.50
2019-05-18T16:43:07.715Z,22.50
2019-05-18T16:45:37.048Z,22.40
2019-05-18T16:48:06.556Z,22.40
2019-05-18T16:50:35.912Z,22.40
2019-05-18T16:53:05.450Z,22.30
2019-05-18T16:55:34.763Z,22.30
2019-05-18T16:58:04.178Z,22.30
2019-05-18T17:00:33.551Z,22.30
2019-05-18T17:03:03.071Z,22.40
2019-05-18T17:05:32.429Z,22.40
2019-05-18T17:08:01.860Z,22.30
2019-05-18T17:10:31.206Z,22.20
2019-05-18T17:13:00.611Z,22.20
2019-05-18T17:15:30.018Z,22.20
2019-05-18T17:17:59.553Z,22.10
2019-05-18T17:20:28.871Z,22.10
2019-05-18T17:22:58.389Z,22.10
2019-05-18T17:25:27.722Z,22.10
2019-05-18T17:27:57.084Z,22.10
2019-05-18T17:30:27.039Z,22.10
2019-05-18T17:32:56.338Z,22.10
2019-05-18T17:35:25.742Z,22.00
2019-05-18T17:37:55.157Z,22.00
2019-05-18T17:40:24.573Z,21.90
2019-05-18T17:42:53.944Z,21.90
2019-05-18T17:45:23.529Z,21.90
2019-05-18T17:47:52.829Z,21.90
2019-05-18T17:50:22.254Z,21.90
2019-05-18T17:52:51.799Z,21.90
2019-05-18T17:55:21.167Z,21.80
2019-05-18T17:57:50.594Z,21.70
2019-05-18T18:00:20.412Z,21.70
2019-05-18T18:02:49.784Z,21.70
2019-05-18T18:05:19.239Z,21.70
2019-05-18T18:07:48.589Z,21.70
2019-05-18T18:10:18.129Z,21.60
2019-05-18T18:12:47.506Z,21.60
2019-05-18T18:15:17.453Z,21.50
2019-05-18T18:17:46.866Z,21.50
2019-05-18T18:20:16.723Z,21.50
2019-05-18T18:22:46.260Z,21.40
2019-05-18T18:25:15.854Z,21.40
2019-05-18T18:27:45.295Z,21.40
2019-05-18T18:30:15.649Z,21.30
2019-05-18T18:32:45.184Z,21.30
2019-05-18T18:35:14.903Z,21.20
2019-05-18T18:37:44.313Z,21.10
2019-05-18T18:40:13.900Z,21.00
2019-05-18T18:42:43.328Z,21.00
2019-05-18T18:45:13.073Z,20.90
2019-05-18T18:47:42.509Z,20.90
2019-05-18T18:50:12.177Z,20.80
2019-05-18T18:52:41.615Z,20.70
2019-05-18T18:55:11.736Z,20.70
2019-05-18T18:57:42.212Z,20.60
2019-05-18T19:00:12.408Z,20.50
2019-05-18T19:02:41.843Z,20.50
2019-05-18T19:05:11.576Z,20.40
2019-05-18T19:07:42.030Z,20.30
2019-05-18T19:10:11.985Z,20.20
2019-05-18T19:12:41.416Z,20.10
2019-05-18T19:15:11.760Z,20.00
2019-05-18T19:17:41.182Z,19.90
2019-05-18T19:20:12.303Z,19.80
2019-05-18T19:22:41.614Z,19.70
2019-05-18T19:25:11.523Z,19.60
2019-05-18T19:27:53.759Z,19.50
2019-05-18T19:30:12.212Z,19.40
2019-05-18T19:32:41.590Z,19.30
2019-05-18T19:35:11.153Z,19.20
2019-05-18T19:37:40.611Z,19.10
2019-05-18T19:40:10.138Z,19.00
2019-05-18T19:42:39.624Z,18.90
2019-05-18T19:45:10.477Z,18.80
2019-05-18T19:47:39.947Z,18.70
2019-05-18T19:50:10.325Z,18.60
2019-05-18T19:52:39.799Z,18.40
2019-05-18T19:55:09.734Z,18.40
2019-05-18T19:57:39.223Z,18.30
2019-05-18T20:00:10.382Z,18.20
2019-05-18T20:02:39.816Z,18.10
2019-05-18T20:05:09.890Z,18.00
2019-05-18T20:07:39.390Z,17.90
2019-05-18T20:10:10.069Z,17.80
2019-05-18T20:12:44.011Z,17.70
2019-05-18T20:15:14.706Z,17.60
2019-05-18T20:17:44.145Z,17.60
2019-05-18T20:20:13.647Z,17.50
2019-05-18T20:22:43.100Z,17.40
2019-05-18T20:25:13.476Z,17.30
2019-05-18T20:27:43.037Z,17.30
2019-05-18T20:30:13.189Z,17.30
2019-05-18T20:32:42.668Z,17.20
2019-05-18T20:35:12.403Z,17.20
2019-05-18T20:37:41.946Z,17.10
2019-05-18T20:40:12.146Z,17.10
2019-05-18T20:42:41.609Z,17.00
2019-05-18T20:45:11.283Z,16.90
2019-05-18T20:47:40.777Z,16.80
2019-05-18T20:50:10.397Z,16.80
2019-05-18T20:52:39.791Z,16.70
2019-05-18T20:55:09.366Z,16.60
2019-05-18T20:57:38.761Z,16.50
2019-05-18T21:00:09.072Z,16.50
2019-05-18T21:02:38.508Z,16.40
2019-05-18T21:05:09.665Z,16.40
2019-05-18T21:07:39.077Z,16.30
2019-05-18T21:10:09.274Z,16.20
2019-05-18T21:12:40.202Z,16.10
2019-05-18T21:15:10.406Z,16.00
2019-05-18T21:17:40.100Z,15.90
2019-05-18T21:20:09.803Z,15.90
2019-05-18T21:22:39.232Z,15.80
2019-05-18T21:25:08.937Z,15.70
2019-05-18T21:27:38.266Z,15.60
2019-05-18T21:30:08.160Z,15.60
2019-05-18T21:32:37.502Z,15.50
2019-05-18T21:35:08.453Z,15.50
2019-05-18T21:37:37.853Z,15.50
2019-05-18T21:40:07.913Z,15.50
2019-05-18T21:42:37.435Z,15.40
2019-05-18T21:45:07.118Z,15.40
2019-05-18T21:47:36.534Z,15.40
2019-05-18T21:50:06.423Z,15.30
2019-05-18T21:52:35.975Z,15.20
2019-05-18T21:55:05.708Z,15.20
2019-05-18T21:57:35.157Z,15.10
2019-05-18T22:00:05.469Z,15.10
2019-05-18T22:02:34.862Z,15.00
2019-05-18T22:05:04.497Z,14.90
2019-05-18T22:07:35.559Z,14.90
2019-05-18T22:10:06.536Z,14.80
2019-05-18T22:12:36.011Z,14.70
2019-05-18T22:15:05.901Z,14.60
2019-05-18T22:17:38.724Z,14.60
2019-05-18T22:20:08.208Z,14.50
2019-05-18T22:22:39.818Z,14.40
2019-05-18T22:25:10.842Z,14.40
2019-05-18T22:27:40.195Z,14.30
2019-05-18T22:30:09.512Z,14.30
2019-05-18T22:32:38.916Z,14.20
2019-05-18T22:35:08.312Z,14.10
2019-05-18T22:37:37.711Z,14.10
2019-05-18T22:40:07.082Z,14.00
2019-05-18T22:42:36.482Z,14.00
2019-05-18T22:45:05.888Z,13.90
2019-05-18T22:47:38.452Z,13.90
2019-05-18T22:50:07.528Z,13.80
2019-05-18T22:52:37.110Z,13.80
2019-05-18T22:55:06.472Z,13.80
2019-05-18T22:57:35.873Z,13.80
2019-05-18T23:00:07.037Z,13.70
2019-05-18T23:02:36.480Z,13.70
2019-05-18T23:05:06.325Z,13.70
2019-05-18T23:07:35.839Z,13.60
2019-05-18T23:10:05.614Z,13.60
2019-05-18T23:12:35.048Z,13.60
2019-05-18T23:15:04.636Z,13.60
2019-05-18T23:17:34.123Z,13.60
2019-05-18T23:20:08.436Z,13.60
2019-05-18T23:22:37.868Z,13.60
2019-05-18T23:25:07.373Z,13.60
2019-05-18T23:27:36.809Z,13.60
2019-05-18T23:30:06.239Z,13.50
2019-05-18T23:32:35.648Z,13.50
2019-05-18T23:35:04.928Z,13.50
2019-05-18T23:37:34.331Z,13.50
2019-05-18T23:40:04.125Z,13.40
2019-05-18T23:42:33.530Z,13.30
2019-05-18T23:45:03.181Z,13.30
2019-05-18T23:47:32.522Z,13.20
2019-05-18T23:50:02.053Z,13.10
2019-05-18T23:52:31.447Z,13.00
2019-05-18T23:55:00.910Z,13.00
2019-05-18T23:57:30.229Z,12.90
